Roque Bluffs, Maine
Current Conditions -  °F | °C
As of 11:55 PM on Friday 28 Nov 2014 (Local Time) from KBHB Reporting Station
Clear Clear  
Wind Chill: -7°   Ceiling: Unl
Heat Index: -7°   Visibility: 10mi
Dew Point: -8°   Wind: 3mph
Humidity: 93%   Direction: 300°WNW
Pressure: 30.12"   Gusts: NA
Location:  44.8808°N, 67.668°W
Report Text: KBHB 290455Z AUTO 30003KT 10SM CLR M07/M08 A3012 RMK AO1
Loading
Personal Weather Stations






























Interactive Weather Map New forecast layout! Learn more

10-Day Weather Forecast

Advertisements
Track Severe Weather on mobile